createdAt,value
2023-05-11T00:00:39.000Z,5.93
2023-05-11T00:03:06.277Z,5.95
2023-05-11T00:05:32.855Z,5.80
2023-05-11T00:07:59.348Z,6.47
2023-05-11T00:10:26.050Z,6.80
2023-05-11T00:12:52.515Z,5.80
2023-05-11T00:15:19.113Z,6.28
2023-05-11T00:17:45.668Z,6.22
2023-05-11T00:20:12.177Z,6.13
2023-05-11T00:22:39.207Z,6.07
2023-05-11T00:25:06.456Z,6.78
2023-05-11T00:27:32.967Z,6.75
2023-05-11T00:29:59.422Z,6.93
2023-05-11T00:32:25.870Z,6.30
2023-05-11T00:34:52.416Z,5.68
2023-05-11T00:37:18.858Z,6.13
2023-05-11T00:39:45.405Z,6.28
2023-05-11T00:42:11.866Z,5.50
2023-05-11T00:44:38.340Z,6.10
2023-05-11T00:47:04.947Z,5.70
2023-05-11T00:49:31.561Z,6.18
2023-05-11T00:51:58.287Z,6.18
2023-05-11T00:54:25.272Z,6.75
2023-05-11T00:56:51.871Z,5.90
2023-05-11T00:59:18.756Z,5.97
2023-05-11T01:01:45.739Z,5.90
2023-05-11T01:04:12.841Z,5.72
2023-05-11T01:07:27.552Z,6.10
2023-05-11T01:10:05.902Z,6.30
2023-05-11T01:12:43.458Z,6.60
2023-05-11T01:15:21.471Z,5.65
2023-05-11T01:18:22.080Z,6.57
2023-05-11T01:20:53.233Z,6.38
2023-05-11T01:23:39.906Z,6.88
2023-05-11T01:26:06.302Z,6.50
2023-05-11T01:28:44.727Z,6.55
2023-05-11T01:31:12.604Z,6.20
2023-05-11T01:33:49.812Z,6.88
2023-05-11T01:36:19.484Z,6.43
2023-05-11T01:38:49.071Z,7.10
2023-05-11T01:41:19.067Z,7.05
2023-05-11T01:43:53.511Z,7.80
2023-05-11T01:46:24.379Z,7.82
2023-05-11T01:48:54.557Z,11.07
2023-05-11T01:51:21.177Z,11.60
2023-05-11T01:53:48.595Z,13.73
2023-05-11T01:56:17.764Z,14.93
2023-05-11T01:58:45.423Z,14.55
2023-05-11T02:01:14.283Z,15.13
2023-05-11T02:03:43.058Z,15.93
2023-05-11T02:06:11.553Z,14.82
2023-05-11T02:08:39.387Z,14.98
2023-05-11T02:11:07.272Z,14.32
2023-05-11T02:13:36.648Z,14.95
2023-05-11T02:16:35.220Z,15.20
2023-05-11T02:19:03.194Z,14.10
2023-05-11T02:21:32.400Z,14.20
2023-05-11T02:24:01.796Z,14.82
2023-05-11T02:26:28.335Z,13.48
2023-05-11T02:28:55.541Z,14.23
2023-05-11T02:31:29.723Z,13.50
2023-05-11T02:34:06.300Z,13.02
2023-05-11T02:36:35.701Z,12.73
2023-05-11T02:39:06.986Z,12.98
2023-05-11T02:41:37.793Z,12.32
2023-05-11T02:44:07.431Z,12.63
2023-05-11T02:46:37.029Z,12.18
2023-05-11T02:49:08.053Z,12.05
2023-05-11T02:51:39.329Z,12.63
2023-05-11T02:54:10.925Z,12.52
2023-05-11T03:00:06.825Z,11.18
2023-05-11T03:02:33.480Z,11.07
2023-05-11T03:05:00.001Z,9.90
2023-05-11T03:07:26.661Z,9.95
2023-05-11T03:09:53.398Z,9.95
2023-05-11T03:12:21.235Z,9.93
2023-05-11T03:14:48.341Z,9.52
2023-05-11T03:17:15.835Z,9.30
2023-05-11T03:19:43.343Z,10.00
2023-05-11T03:22:10.653Z,9.00
2023-05-11T03:24:38.500Z,9.02
2023-05-11T03:27:07.827Z,8.75
2023-05-11T03:29:38.452Z,9.13
2023-05-11T03:32:05.501Z,8.50
2023-05-11T03:34:32.465Z,8.93
2023-05-11T03:37:00.733Z,8.73
2023-05-11T03:39:31.236Z,7.53
2023-05-11T03:41:59.310Z,7.47
2023-05-11T03:44:26.675Z,8.55
2023-05-11T03:46:55.261Z,7.63
2023-05-11T03:49:22.400Z,7.75
2023-05-11T03:51:49.373Z,7.78
2023-05-11T03:54:16.112Z,7.75
2023-05-11T03:56:42.640Z,7.65
2023-05-11T03:59:14.464Z,7.35
2023-05-11T04:01:42.613Z,7.78
2023-05-11T04:04:09.211Z,6.90
2023-05-11T04:06:35.807Z,7.88
2023-05-11T04:09:02.229Z,6.90
2023-05-11T04:11:30.421Z,7.20
2023-05-11T04:13:56.990Z,7.28
2023-05-11T04:16:23.482Z,7.82
2023-05-11T04:18:50.110Z,7.05
2023-05-11T04:21:16.654Z,7.25
2023-05-11T04:23:43.165Z,7.00
2023-05-11T04:26:10.105Z,6.68
2023-05-11T04:28:36.571Z,7.13
2023-05-11T04:31:03.175Z,6.50
2023-05-11T04:33:29.813Z,6.43
2023-05-11T04:35:56.391Z,5.57
2023-05-11T04:38:22.959Z,6.35
2023-05-11T04:40:50.668Z,6.93
2023-05-11T04:43:18.523Z,6.43
2023-05-11T04:45:51.693Z,6.70
2023-05-11T04:48:20.519Z,7.43
2023-05-11T04:50:47.761Z,6.72
2023-05-11T04:53:14.400Z,6.03
2023-05-11T04:55:41.030Z,6.38
2023-05-11T04:58:07.530Z,6.45
2023-05-11T05:00:34.119Z,6.25
2023-05-11T05:03:00.606Z,6.45
2023-05-11T05:05:27.223Z,6.15
2023-05-11T05:07:53.686Z,7.18
2023-05-11T05:10:20.586Z,6.50
2023-05-11T05:12:47.404Z,7.97
2023-05-11T05:15:14.077Z,6.45
2023-05-11T05:17:40.701Z,6.20
2023-05-11T05:20:07.938Z,5.80
2023-05-11T05:22:34.922Z,5.82
2023-05-11T05:25:01.490Z,6.05
2023-05-11T05:27:28.106Z,5.40
2023-05-11T05:29:54.631Z,5.80
2023-05-11T05:32:21.107Z,5.70
2023-05-11T05:34:47.638Z,5.95
2023-05-11T05:37:14.200Z,5.82
2023-05-11T05:39:40.927Z,5.07
2023-05-11T05:42:07.559Z,5.53
2023-05-11T05:44:34.066Z,5.00
2023-05-11T05:47:00.583Z,5.75
2023-05-11T05:49:27.093Z,5.63
2023-05-11T05:51:53.617Z,4.90
2023-05-11T05:54:20.211Z,4.85
2023-05-11T05:56:47.688Z,4.95
2023-05-11T05:59:14.513Z,5.05
2023-05-11T06:01:45.573Z,4.97
2023-05-11T06:04:16.044Z,5.20
2023-05-11T06:06:42.702Z,4.60
2023-05-11T06:09:11.332Z,5.18
2023-05-11T06:11:38.276Z,4.65
2023-05-11T06:14:05.808Z,4.80
2023-05-11T06:16:32.574Z,5.05
2023-05-11T06:18:59.292Z,4.97
2023-05-11T06:21:25.769Z,4.40
2023-05-11T06:23:52.517Z,4.38
2023-05-11T06:26:19.206Z,5.05
2023-05-11T06:28:45.721Z,4.35
2023-05-11T06:31:12.721Z,4.70
2023-05-11T06:33:39.256Z,5.20
2023-05-11T06:36:06.740Z,4.18
2023-05-11T06:38:33.208Z,4.80
2023-05-11T06:40:59.796Z,4.53
2023-05-11T06:43:26.739Z,5.15
2023-05-11T06:45:53.268Z,5.00
2023-05-11T06:48:20.465Z,4.38
2023-05-11T06:50:46.996Z,3.88
2023-05-11T06:53:13.954Z,4.03
2023-05-11T06:55:40.700Z,3.88
2023-05-11T06:58:07.246Z,4.35
2023-05-11T07:00:34.004Z,4.13
2023-05-11T07:03:00.653Z,3.63
2023-05-11T07:05:27.935Z,3.67
2023-05-11T07:07:54.440Z,4.15
2023-05-11T07:10:21.206Z,3.70
2023-05-11T07:12:47.911Z,3.90
2023-05-11T07:15:14.393Z,3.33
2023-05-11T07:17:41.014Z,2.80
2023-05-11T07:20:08.345Z,2.80
2023-05-11T07:22:34.816Z,3.08
2023-05-11T07:25:01.597Z,2.72
2023-05-11T07:27:28.188Z,3.47
2023-05-11T07:29:54.697Z,3.35
2023-05-11T07:32:21.207Z,3.65
2023-05-11T07:34:48.544Z,3.22
2023-05-11T07:37:15.271Z,3.42
2023-05-11T07:39:41.814Z,3.15
2023-05-11T07:42:08.360Z,3.00
2023-05-11T07:44:35.018Z,3.10
2023-05-11T07:47:01.839Z,2.92
2023-05-11T07:49:39.976Z,3.13
2023-05-11T07:52:10.384Z,3.28
2023-05-11T07:54:36.965Z,3.10
2023-05-11T07:57:04.098Z,2.90
2023-05-11T07:59:31.193Z,2.83
2023-05-11T08:01:57.845Z,2.60
2023-05-11T08:04:24.505Z,2.90
2023-05-11T08:06:51.202Z,3.00
2023-05-11T08:09:17.934Z,2.83
2023-05-11T08:11:44.480Z,2.80
2023-05-11T08:14:10.997Z,2.78
2023-05-11T08:16:37.990Z,3.15
2023-05-11T08:19:04.725Z,2.78
2023-05-11T08:21:32.858Z,2.58
2023-05-11T08:23:59.405Z,3.28
2023-05-11T08:26:25.876Z,3.30
2023-05-11T08:28:52.831Z,2.67
2023-05-11T08:31:19.410Z,2.38
2023-05-11T08:33:46.063Z,2.90
2023-05-11T08:36:15.717Z,2.30
2023-05-11T08:38:42.292Z,3.05
2023-05-11T08:41:11.894Z,2.80
2023-05-11T08:43:39.832Z,3.20
2023-05-11T08:46:08.830Z,2.70
2023-05-11T08:48:35.924Z,2.72
2023-05-11T08:51:05.596Z,3.13
2023-05-11T08:53:32.701Z,3.05
2023-05-11T08:56:01.100Z,2.55
2023-05-11T08:58:29.031Z,4.75
2023-05-11T09:00:57.351Z,2.67
2023-05-11T09:03:24.059Z,2.70
2023-05-11T09:05:50.925Z,2.30
2023-05-11T09:08:19.230Z,2.40
2023-05-11T09:10:46.255Z,2.58
2023-05-11T09:13:13.196Z,2.70
2023-05-11T09:15:39.784Z,2.20
2023-05-11T09:18:06.933Z,2.03
2023-05-11T09:20:34.786Z,2.53
2023-05-11T09:23:01.915Z,2.33
2023-05-11T09:25:34.851Z,2.20
2023-05-11T09:28:01.561Z,2.20
2023-05-11T09:30:28.443Z,2.10
2023-05-11T09:33:02.697Z,2.13
2023-05-11T09:35:34.463Z,2.10
2023-05-11T09:38:04.809Z,2.72
2023-05-11T09:40:37.317Z,2.10
2023-05-11T09:43:16.816Z,2.30
2023-05-11T09:45:45.469Z,2.15
2023-05-11T09:48:21.402Z,2.30
2023-05-11T09:50:50.145Z,2.40
2023-05-11T09:53:17.377Z,2.13
2023-05-11T09:55:55.648Z,2.45
2023-05-11T09:58:22.264Z,2.10
2023-05-11T10:00:53.742Z,2.33
2023-05-11T10:03:20.576Z,2.10
2023-05-11T10:06:01.279Z,1.83
2023-05-11T10:08:32.369Z,2.05
2023-05-11T10:10:59.208Z,2.25
2023-05-11T10:13:27.313Z,1.60
2023-05-11T10:15:57.620Z,2.00
2023-05-11T10:18:25.720Z,2.13
2023-05-11T10:20:53.577Z,2.30
2023-05-11T10:23:21.103Z,1.75
2023-05-11T10:25:48.416Z,2.10
2023-05-11T10:28:15.474Z,1.70
2023-05-11T10:30:43.089Z,1.50
2023-05-11T10:33:10.628Z,1.73
2023-05-11T10:35:38.509Z,1.77
2023-05-11T10:38:08.643Z,1.60
2023-05-11T10:40:41.994Z,1.85
2023-05-11T10:43:29.879Z,1.77
2023-05-11T10:46:17.867Z,2.17
2023-05-11T10:49:10.158Z,1.60
2023-05-11T10:52:18.080Z,1.80
2023-05-11T10:55:06.775Z,1.80
2023-05-11T10:57:52.073Z,1.60
2023-05-11T11:00:31.289Z,1.88
2023-05-11T11:02:59.024Z,1.85
2023-05-11T11:05:38.081Z,1.75
2023-05-11T11:08:07.316Z,1.75
2023-05-11T11:10:35.750Z,1.70
2023-05-11T11:13:04.640Z,2.22
2023-05-11T11:16:06.441Z,1.45
2023-05-11T11:21:03.024Z,2.05
2023-05-11T11:23:45.467Z,1.58
2023-05-11T11:26:16.635Z,2.00
2023-05-11T11:29:08.339Z,1.50
2023-05-11T11:34:29.312Z,1.73
2023-05-11T11:36:55.812Z,2.13
2023-05-11T11:39:23.100Z,1.88
2023-05-11T11:42:07.062Z,1.80
2023-05-11T11:44:39.573Z,1.80
2023-05-11T11:47:12.127Z,1.83
2023-05-11T11:49:40.352Z,2.15
2023-05-11T11:52:12.513Z,2.05
2023-05-11T11:54:45.453Z,1.55
2023-05-11T11:57:30.232Z,1.83
2023-05-11T11:59:57.115Z,3.70
2023-05-11T12:02:24.537Z,1.83
2023-05-11T12:05:00.146Z,1.70
2023-05-11T12:07:31.336Z,2.00
2023-05-11T12:09:58.175Z,1.90
2023-05-11T12:12:25.363Z,1.67
2023-05-11T12:14:51.851Z,2.10
2023-05-11T12:17:28.063Z,2.05
2023-05-11T12:19:55.912Z,1.58
2023-05-11T12:22:24.351Z,1.77
2023-05-11T12:24:51.232Z,1.90
2023-05-11T12:27:21.102Z,1.75
2023-05-11T12:29:51.416Z,1.63
2023-05-11T12:32:31.909Z,1.98
2023-05-11T12:35:02.775Z,2.03
2023-05-11T12:37:31.135Z,1.77
2023-05-11T12:39:58.335Z,1.58
2023-05-11T12:42:25.375Z,1.65
2023-05-11T12:44:52.305Z,2.35
2023-05-11T12:47:18.962Z,1.55
2023-05-11T12:49:45.682Z,1.85
2023-05-11T12:52:16.393Z,1.77
2023-05-11T12:54:51.691Z,1.80
2023-05-11T12:57:26.587Z,2.00
2023-05-11T13:00:25.609Z,1.67
2023-05-11T13:02:54.887Z,2.13
2023-05-11T13:05:27.800Z,1.52
2023-05-11T13:08:02.211Z,1.65
2023-05-11T13:10:29.544Z,2.17
2023-05-11T13:12:56.594Z,1.80
2023-05-11T13:15:24.530Z,1.73
2023-05-11T13:18:16.504Z,1.42
2023-05-11T13:20:44.865Z,1.70
2023-05-11T13:23:13.891Z,1.70
2023-05-11T13:25:46.513Z,1.58
2023-05-11T13:28:15.425Z,1.40
2023-05-11T13:30:42.483Z,1.90
2023-05-11T13:33:09.434Z,1.90
2023-05-11T13:35:39.981Z,1.75
2023-05-11T13:38:06.898Z,1.65
2023-05-11T13:40:34.059Z,1.40
2023-05-11T13:43:00.803Z,1.80
2023-05-11T13:45:28.403Z,2.03
2023-05-11T13:47:57.831Z,1.63
2023-05-11T13:50:26.064Z,1.88
2023-05-11T13:52:53.761Z,1.80
2023-05-11T13:55:21.187Z,1.60
2023-05-11T13:57:48.297Z,1.63
2023-05-11T14:00:15.403Z,1.67
2023-05-11T14:02:42.147Z,1.58
2023-05-11T14:05:09.183Z,1.45
2023-05-11T14:07:46.384Z,1.60
2023-05-11T14:10:15.329Z,1.63
2023-05-11T14:12:41.938Z,2.10
2023-05-11T14:15:09.069Z,1.67
2023-05-11T14:17:35.876Z,1.58
2023-05-11T14:20:03.291Z,2.50
2023-05-11T14:22:29.857Z,1.60
2023-05-11T14:24:56.390Z,1.77
2023-05-11T14:27:23.495Z,1.77
2023-05-11T14:29:52.059Z,1.67
2023-05-11T14:32:22.046Z,1.60
2023-05-11T14:34:48.820Z,1.80
2023-05-11T14:37:15.577Z,1.20
2023-05-11T14:39:42.117Z,1.80
2023-05-11T14:42:09.268Z,2.17
2023-05-11T14:44:35.825Z,1.75
2023-05-11T14:47:02.518Z,1.55
2023-05-11T14:49:29.018Z,2.08
2023-05-11T14:51:56.588Z,1.33
2023-05-11T14:54:23.298Z,1.88
2023-05-11T14:56:53.877Z,1.60
2023-05-11T14:59:26.416Z,1.55
2023-05-11T15:01:53.272Z,1.45
2023-05-11T15:04:20.396Z,1.33
2023-05-11T15:06:47.016Z,1.40
2023-05-11T15:09:13.681Z,1.80
2023-05-11T15:11:40.163Z,1.40
2023-05-11T15:14:09.831Z,2.13
2023-05-11T15:16:37.110Z,1.98
2023-05-11T15:19:05.081Z,1.70
2023-05-11T15:21:32.568Z,1.42
2023-05-11T15:23:59.110Z,1.83
2023-05-11T15:26:25.963Z,1.77
2023-05-11T15:28:52.530Z,1.77
2023-05-11T15:31:19.071Z,1.80
2023-05-11T15:33:45.712Z,1.52
2023-05-11T15:36:14.181Z,2.00
2023-05-11T15:38:42.377Z,1.80
2023-05-11T15:41:09.387Z,1.70
2023-05-11T15:43:35.902Z,1.73
2023-05-11T15:46:03.888Z,1.50
2023-05-11T15:48:30.719Z,2.05
2023-05-11T15:50:59.724Z,1.52
2023-05-11T15:53:26.929Z,1.73
2023-05-11T15:55:55.406Z,2.03
2023-05-11T15:58:22.982Z,1.85
2023-05-11T16:00:49.585Z,1.92
2023-05-11T16:03:16.584Z,1.52
2023-05-11T16:05:44.557Z,1.48
2023-05-11T16:08:11.328Z,1.90
2023-05-11T16:10:37.897Z,2.15
2023-05-11T16:13:04.535Z,2.03
2023-05-11T16:15:32.105Z,1.60
2023-05-11T16:17:58.704Z,1.80
2023-05-11T16:20:25.421Z,1.98
2023-05-11T16:22:52.208Z,1.88
2023-05-11T16:25:18.997Z,2.00
2023-05-11T16:27:45.562Z,2.28
2023-05-11T16:30:23.278Z,1.73
2023-05-11T16:32:52.450Z,2.45
2023-05-11T16:35:19.128Z,2.30
2023-05-11T16:37:47.655Z,2.33
2023-05-11T16:40:14.362Z,1.80
2023-05-11T16:42:40.868Z,1.88
2023-05-11T16:45:07.746Z,2.00
2023-05-11T16:47:34.404Z,1.80
2023-05-11T16:50:00.883Z,2.30
2023-05-11T16:52:27.644Z,2.10
2023-05-11T16:54:54.895Z,2.05
2023-05-11T16:57:22.663Z,2.10
2023-05-11T16:59:49.170Z,1.95
2023-05-11T17:02:15.638Z,1.95
2023-05-11T17:04:42.197Z,1.80
2023-05-11T17:07:10.907Z,2.17
2023-05-11T17:09:37.473Z,2.17
2023-05-11T17:12:10.600Z,2.13
2023-05-11T17:14:37.314Z,2.42
2023-05-11T17:17:04.849Z,2.28
2023-05-11T17:19:31.457Z,2.20
2023-05-11T17:21:58.659Z,2.25
2023-05-11T17:24:25.565Z,2.30
2023-05-11T17:26:52.174Z,1.85
2023-05-11T17:29:18.741Z,2.05
2023-05-11T17:31:48.721Z,2.17
2023-05-11T17:34:15.948Z,1.75
2023-05-11T17:36:53.309Z,1.73
2023-05-11T17:39:19.915Z,2.05
2023-05-11T17:41:47.391Z,2.10
2023-05-11T17:44:14.120Z,2.17
2023-05-11T17:46:40.670Z,1.60
2023-05-11T17:49:08.003Z,2.03
2023-05-11T17:51:34.505Z,1.60
2023-05-11T17:54:01.414Z,2.22
2023-05-11T17:56:27.937Z,1.90
2023-05-11T17:58:54.670Z,2.40
2023-05-11T18:01:22.588Z,2.67
2023-05-11T18:03:49.568Z,1.90
2023-05-11T18:06:16.456Z,2.30
2023-05-11T18:08:42.980Z,1.95
2023-05-11T18:11:10.888Z,2.03
2023-05-11T18:13:37.435Z,2.28
2023-05-11T18:16:04.453Z,2.15
2023-05-11T18:18:31.930Z,2.30
2023-05-11T18:20:59.368Z,2.30
2023-05-11T18:23:25.815Z,2.95
2023-05-11T18:25:52.267Z,2.50
2023-05-11T18:28:18.778Z,2.20
2023-05-11T18:30:45.229Z,2.03
2023-05-11T18:33:11.761Z,2.15
2023-05-11T18:35:40.241Z,2.63
2023-05-11T18:38:07.110Z,2.47
2023-05-11T18:40:34.486Z,2.40
2023-05-11T18:43:01.572Z,2.20
2023-05-11T18:45:32.920Z,2.20
2023-05-11T18:47:59.432Z,2.30
2023-05-11T18:50:27.091Z,2.38
2023-05-11T18:52:53.700Z,2.40
2023-05-11T18:55:20.268Z,2.20
2023-05-11T18:57:46.892Z,2.50
2023-05-11T19:00:13.730Z,2.80
2023-05-11T19:02:40.308Z,2.38
2023-05-11T19:05:07.417Z,2.70
2023-05-11T19:07:33.936Z,2.60
2023-05-11T19:10:00.404Z,2.50
2023-05-11T19:12:27.288Z,2.53
2023-05-11T19:14:56.123Z,2.85
2023-05-11T19:17:23.534Z,2.40
2023-05-11T19:19:50.189Z,2.60
2023-05-11T19:22:17.309Z,2.63
2023-05-11T19:24:43.814Z,2.60
2023-05-11T19:27:10.408Z,2.45
2023-05-11T19:29:36.992Z,2.75
2023-05-11T19:32:03.693Z,2.78
2023-05-11T19:34:30.296Z,2.88
2023-05-11T19:36:56.889Z,2.90
2023-05-11T19:39:24.366Z,2.75
2023-05-11T19:41:50.962Z,2.63
2023-05-11T19:44:17.830Z,2.60
2023-05-11T19:46:46.881Z,2.88
2023-05-11T19:49:15.001Z,3.15
2023-05-11T19:51:42.343Z,2.50
2023-05-11T19:54:09.631Z,2.50
2023-05-11T19:56:36.156Z,3.25
2023-05-11T19:59:02.863Z,3.00
2023-05-11T20:01:29.413Z,3.25
2023-05-11T20:03:56.645Z,2.92
2023-05-11T20:06:23.328Z,2.90
2023-05-11T20:08:51.553Z,2.63
2023-05-11T20:11:18.249Z,3.17
2023-05-11T20:13:45.030Z,2.90
2023-05-11T20:16:11.576Z,3.10
2023-05-11T20:18:38.153Z,2.97
2023-05-11T20:21:04.651Z,2.92
2023-05-11T20:23:31.125Z,3.70
2023-05-11T20:25:57.694Z,3.17
2023-05-11T20:28:27.923Z,2.90
2023-05-11T20:30:56.142Z,2.83
2023-05-11T20:35:53.574Z,2.90
2023-05-11T20:38:20.543Z,3.25
2023-05-11T20:40:47.270Z,3.13
2023-05-11T20:43:14.963Z,3.63
2023-05-11T20:45:42.302Z,3.53
2023-05-11T20:48:09.165Z,3.20
2023-05-11T20:50:35.759Z,2.97
2023-05-11T20:53:02.476Z,3.22
2023-05-11T20:55:29.137Z,3.00
2023-05-11T20:57:55.699Z,2.83
2023-05-11T21:00:22.816Z,3.42
2023-05-11T21:02:49.795Z,2.90
2023-05-11T21:05:16.512Z,3.17
2023-05-11T21:07:43.033Z,3.13
2023-05-11T21:10:12.417Z,3.70
2023-05-11T21:12:38.968Z,2.80
2023-05-11T21:15:07.061Z,2.90
2023-05-11T21:17:33.741Z,3.50
2023-05-11T21:20:00.501Z,2.88
2023-05-11T21:22:27.160Z,3.22
2023-05-11T21:24:53.839Z,3.10
2023-05-11T21:27:20.383Z,3.05
2023-05-11T21:29:48.133Z,3.22
2023-05-11T21:32:14.941Z,3.20
2023-05-11T21:34:42.439Z,3.03
2023-05-11T21:37:09.084Z,3.15
2023-05-11T21:39:35.688Z,3.22
2023-05-11T21:42:03.502Z,3.45
2023-05-11T21:44:30.024Z,3.60
2023-05-11T21:46:56.642Z,3.15
2023-05-11T21:49:23.301Z,3.28
2023-05-11T21:51:50.227Z,3.25
2023-05-11T21:54:16.799Z,4.20
2023-05-11T21:56:43.605Z,3.70
2023-05-11T21:59:10.169Z,3.35
2023-05-11T22:01:36.718Z,3.22
2023-05-11T22:04:03.555Z,3.72
2023-05-11T22:06:30.853Z,3.35
2023-05-11T22:08:57.326Z,3.63
2023-05-11T22:11:24.258Z,3.88
2023-05-11T22:13:51.019Z,3.75
2023-05-11T22:16:17.664Z,3.47
2023-05-11T22:18:44.421Z,3.45
2023-05-11T22:21:11.017Z,3.58
2023-05-11T22:23:37.630Z,4.25
2023-05-11T22:26:04.550Z,3.92
2023-05-11T22:28:31.018Z,3.88
2023-05-11T22:31:00.628Z,4.03
2023-05-11T22:33:27.114Z,4.10
2023-05-11T22:35:53.637Z,3.67
2023-05-11T22:38:20.194Z,3.88
2023-05-11T22:40:46.694Z,4.47
2023-05-11T22:43:13.226Z,4.03
2023-05-11T22:45:39.915Z,3.78
2023-05-11T22:48:07.278Z,4.13
2023-05-11T22:50:33.867Z,3.92
2023-05-11T22:53:00.649Z,4.35
2023-05-11T22:55:27.189Z,4.03
2023-05-11T22:57:53.625Z,3.63
2023-05-11T23:00:20.577Z,4.25
2023-05-11T23:02:47.537Z,4.22
2023-05-11T23:05:14.288Z,4.18
2023-05-11T23:07:40.807Z,4.13
2023-05-11T23:10:07.645Z,3.78
2023-05-11T23:12:34.230Z,4.10
2023-05-11T23:15:01.021Z,4.10
2023-05-11T23:17:27.696Z,4.40
2023-05-11T23:19:54.236Z,4.28
2023-05-11T23:22:20.772Z,3.70
2023-05-11T23:24:47.312Z,4.15
2023-05-11T23:27:14.121Z,3.83
2023-05-11T23:29:40.723Z,4.15
2023-05-11T23:32:07.301Z,4.30
2023-05-11T23:34:33.823Z,4.07
2023-05-11T23:37:00.425Z,4.10
2023-05-11T23:39:26.922Z,4.22
2023-05-11T23:41:53.410Z,3.63
2023-05-11T23:44:20.272Z,4.47
2023-05-11T23:46:46.884Z,3.85
2023-05-11T23:49:13.537Z,4.30
2023-05-11T23:51:40.088Z,5.15
2023-05-11T23:54:07.099Z,4.22
2023-05-11T23:56:33.770Z,4.65
2023-05-11T23:59:00.287Z,4.22
